sensor_id;sensor_type;location;lat;lon;timestamp;P1;durP1;ratioP1;P2;durP2;ratioP2
21235;SDS011;10775;42.678;26.324;2024-02-23T00:01:05;18.90;;;9.60;;
21235;SDS011;10775;42.678;26.324;2024-02-23T00:03:31;20.10;;;9.38;;
21235;SDS011;10775;42.678;26.324;2024-02-23T00:05:59;19.00;;;9.05;;
21235;SDS011;10775;42.678;26.324;2024-02-23T00:08:24;20.52;;;9.75;;
21235;SDS011;10775;42.678;26.324;2024-02-23T00:10:50;17.02;;;9.70;;
21235;SDS011;10775;42.678;26.324;2024-02-23T00:13:15;17.45;;;9.70;;
21235;SDS011;10775;42.678;26.324;2024-02-23T00:15:41;17.25;;;8.60;;
21235;SDS011;10775;42.678;26.324;2024-02-23T00:18:06;16.80;;;9.13;;
21235;SDS011;10775;42.678;26.324;2024-02-23T00:20:32;18.58;;;9.15;;
21235;SDS011;10775;42.678;26.324;2024-02-23T00:22:57;17.75;;;9.23;;
21235;SDS011;10775;42.678;26.324;2024-02-23T00:25:22;15.88;;;8.75;;
21235;SDS011;10775;42.678;26.324;2024-02-23T00:27:49;15.02;;;9.02;;
21235;SDS011;10775;42.678;26.324;2024-02-23T00:30:14;14.88;;;8.63;;
21235;SDS011;10775;42.678;26.324;2024-02-23T00:32:40;19.33;;;9.13;;
21235;SDS011;10775;42.678;26.324;2024-02-23T00:35:05;17.77;;;9.35;;
21235;SDS011;10775;42.678;26.324;2024-02-23T00:37:31;16.92;;;9.40;;
21235;SDS011;10775;42.678;26.324;2024-02-23T00:40:01;19.00;;;9.15;;
21235;SDS011;10775;42.678;26.324;2024-02-23T00:42:29;16.52;;;9.23;;
21235;SDS011;10775;42.678;26.324;2024-02-23T00:44:55;17.70;;;9.15;;
21235;SDS011;10775;42.678;26.324;2024-02-23T00:47:21;15.38;;;8.55;;
21235;SDS011;10775;42.678;26.324;2024-02-23T00:49:46;15.45;;;8.35;;
21235;SDS011;10775;42.678;26.324;2024-02-23T00:52:12;16.25;;;9.20;;
21235;SDS011;10775;42.678;26.324;2024-02-23T00:54:37;15.73;;;8.68;;
21235;SDS011;10775;42.678;26.324;2024-02-23T00:57:03;14.63;;;8.07;;
21235;SDS011;10775;42.678;26.324;2024-02-23T00:59:28;15.48;;;8.65;;
21235;SDS011;10775;42.678;26.324;2024-02-23T01:01:54;13.13;;;8.50;;
21235;SDS011;10775;42.678;26.324;2024-02-23T01:04:20;14.20;;;7.60;;
21235;SDS011;10775;42.678;26.324;2024-02-23T01:06:46;14.43;;;8.27;;
21235;SDS011;10775;42.678;26.324;2024-02-23T01:09:11;17.17;;;8.30;;
21235;SDS011;10775;42.678;26.324;2024-02-23T01:11:37;14.70;;;8.25;;
21235;SDS011;10775;42.678;26.324;2024-02-23T01:14:02;16.33;;;9.05;;
21235;SDS011;10775;42.678;26.324;2024-02-23T01:16:28;14.75;;;8.68;;
21235;SDS011;10775;42.678;26.324;2024-02-23T01:18:53;15.07;;;8.30;;
21235;SDS011;10775;42.678;26.324;2024-02-23T01:21:19;16.67;;;8.65;;
21235;SDS011;10775;42.678;26.324;2024-02-23T01:23:44;15.13;;;8.57;;
21235;SDS011;10775;42.678;26.324;2024-02-23T01:26:10;14.20;;;8.02;;
21235;SDS011;10775;42.678;26.324;2024-02-23T01:28:35;14.43;;;8.52;;
21235;SDS011;10775;42.678;26.324;2024-02-23T01:31:00;16.23;;;8.60;;
21235;SDS011;10775;42.678;26.324;2024-02-23T01:33:26;14.88;;;8.10;;
21235;SDS011;10775;42.678;26.324;2024-02-23T01:35:52;15.80;;;8.90;;
21235;SDS011;10775;42.678;26.324;2024-02-23T01:38:17;14.95;;;7.68;;
21235;SDS011;10775;42.678;26.324;2024-02-23T01:40:46;14.55;;;8.30;;
21235;SDS011;10775;42.678;26.324;2024-02-23T01:43:12;14.30;;;8.68;;
21235;SDS011;10775;42.678;26.324;2024-02-23T01:45:38;14.23;;;7.93;;
21235;SDS011;10775;42.678;26.324;2024-02-23T01:48:04;14.25;;;8.40;;
21235;SDS011;10775;42.678;26.324;2024-02-23T01:50:30;15.27;;;8.15;;
21235;SDS011;10775;42.678;26.324;2024-02-23T01:52:58;15.35;;;8.55;;
21235;SDS011;10775;42.678;26.324;2024-02-23T01:55:27;14.38;;;8.43;;
21235;SDS011;10775;42.678;26.324;2024-02-23T01:57:53;11.35;;;7.75;;
21235;SDS011;10775;42.678;26.324;2024-02-23T02:00:20;14.13;;;8.15;;
21235;SDS011;10775;42.678;26.324;2024-02-23T02:02:47;11.90;;;7.45;;
21235;SDS011;10775;42.678;26.324;2024-02-23T02:05:13;14.50;;;7.72;;
21235;SDS011;10775;42.678;26.324;2024-02-23T02:07:39;12.25;;;7.80;;
21235;SDS011;10775;42.678;26.324;2024-02-23T02:10:07;12.20;;;7.35;;
21235;SDS011;10775;42.678;26.324;2024-02-23T02:12:34;14.02;;;8.15;;
21235;SDS011;10775;42.678;26.324;2024-02-23T02:14:59;12.68;;;7.45;;
21235;SDS011;10775;42.678;26.324;2024-02-23T02:17:26;11.77;;;8.00;;
21235;SDS011;10775;42.678;26.324;2024-02-23T02:19:52;10.52;;;7.35;;
21235;SDS011;10775;42.678;26.324;2024-02-23T02:22:18;12.75;;;7.40;;
21235;SDS011;10775;42.678;26.324;2024-02-23T02:24:44;12.48;;;7.65;;
21235;SDS011;10775;42.678;26.324;2024-02-23T02:27:11;11.77;;;7.25;;
21235;SDS011;10775;42.678;26.324;2024-02-23T02:29:37;10.10;;;6.63;;
21235;SDS011;10775;42.678;26.324;2024-02-23T02:32:03;11.35;;;7.15;;
21235;SDS011;10775;42.678;26.324;2024-02-23T02:34:29;13.70;;;7.47;;
21235;SDS011;10775;42.678;26.324;2024-02-23T02:36:54;11.98;;;7.45;;
21235;SDS011;10775;42.678;26.324;2024-02-23T02:39:20;11.88;;;7.07;;
21235;SDS011;10775;42.678;26.324;2024-02-23T02:41:47;11.25;;;7.38;;
21235;SDS011;10775;42.678;26.324;2024-02-23T02:44:13;13.05;;;7.03;;
21235;SDS011;10775;42.678;26.324;2024-02-23T02:46:39;13.60;;;6.72;;
21235;SDS011;10775;42.678;26.324;2024-02-23T02:49:04;9.95;;;6.50;;
21235;SDS011;10775;42.678;26.324;2024-02-23T02:51:30;10.52;;;7.32;;
21235;SDS011;10775;42.678;26.324;2024-02-23T02:53:55;13.15;;;7.30;;
21235;SDS011;10775;42.678;26.324;2024-02-23T02:56:21;13.10;;;7.03;;
21235;SDS011;10775;42.678;26.324;2024-02-23T02:58:46;13.02;;;7.95;;
21235;SDS011;10775;42.678;26.324;2024-02-23T03:01:11;12.88;;;7.15;;
21235;SDS011;10775;42.678;26.324;2024-02-23T03:03:37;13.13;;;7.22;;
21235;SDS011;10775;42.678;26.324;2024-02-23T03:06:02;12.40;;;7.40;;
21235;SDS011;10775;42.678;26.324;2024-02-23T03:08:28;11.85;;;7.18;;
21235;SDS011;10775;42.678;26.324;2024-02-23T03:10:54;11.00;;;6.72;;
21235;SDS011;10775;42.678;26.324;2024-02-23T03:13:19;11.63;;;7.03;;
21235;SDS011;10775;42.678;26.324;2024-02-23T03:15:45;13.57;;;7.40;;
21235;SDS011;10775;42.678;26.324;2024-02-23T03:18:10;11.27;;;7.03;;
21235;SDS011;10775;42.678;26.324;2024-02-23T03:20:36;12.55;;;7.22;;
21235;SDS011;10775;42.678;26.324;2024-02-23T03:23:01;12.48;;;8.05;;
21235;SDS011;10775;42.678;26.324;2024-02-23T03:25:28;13.45;;;7.70;;
21235;SDS011;10775;42.678;26.324;2024-02-23T03:27:54;11.63;;;7.53;;
21235;SDS011;10775;42.678;26.324;2024-02-23T03:30:19;11.88;;;7.28;;
21235;SDS011;10775;42.678;26.324;2024-02-23T03:32:45;11.48;;;7.07;;
21235;SDS011;10775;42.678;26.324;2024-02-23T03:35:12;10.93;;;6.35;;
21235;SDS011;10775;42.678;26.324;2024-02-23T03:37:38;11.88;;;7.18;;
21235;SDS011;10775;42.678;26.324;2024-02-23T03:40:06;11.25;;;6.80;;
21235;SDS011;10775;42.678;26.324;2024-02-23T03:42:33;13.43;;;7.00;;
21235;SDS011;10775;42.678;26.324;2024-02-23T03:44:58;10.95;;;6.88;;
21235;SDS011;10775;42.678;26.324;2024-02-23T03:47:24;12.30;;;7.25;;
21235;SDS011;10775;42.678;26.324;2024-02-23T03:49:49;11.80;;;6.88;;
21235;SDS011;10775;42.678;26.324;2024-02-23T03:52:14;12.25;;;7.03;;
21235;SDS011;10775;42.678;26.324;2024-02-23T03:54:40;11.45;;;7.30;;
21235;SDS011;10775;42.678;26.324;2024-02-23T03:57:06;14.10;;;7.88;;
21235;SDS011;10775;42.678;26.324;2024-02-23T03:59:31;12.93;;;7.95;;
21235;SDS011;10775;42.678;26.324;2024-02-23T04:01:57;15.18;;;8.55;;
21235;SDS011;10775;42.678;26.324;2024-02-23T04:04:22;14.20;;;8.27;;
21235;SDS011;10775;42.678;26.324;2024-02-23T04:06:48;15.80;;;8.82;;
21235;SDS011;10775;42.678;26.324;2024-02-23T04:09:13;12.52;;;7.47;;
21235;SDS011;10775;42.678;26.324;2024-02-23T04:11:39;13.35;;;7.85;;
21235;SDS011;10775;42.678;26.324;2024-02-23T04:14:04;34.97;;;13.88;;
21235;SDS011;10775;42.678;26.324;2024-02-23T04:16:32;80.10;;;26.02;;
21235;SDS011;10775;42.678;26.324;2024-02-23T04:18:58;63.65;;;22.02;;
21235;SDS011;10775;42.678;26.324;2024-02-23T04:21:24;48.78;;;18.95;;
21235;SDS011;10775;42.678;26.324;2024-02-23T04:23:50;39.72;;;14.73;;
21235;SDS011;10775;42.678;26.324;2024-02-23T04:26:15;32.13;;;12.43;;
21235;SDS011;10775;42.678;26.324;2024-02-23T04:28:41;16.10;;;8.43;;
21235;SDS011;10775;42.678;26.324;2024-02-23T04:31:10;12.48;;;7.55;;
21235;SDS011;10775;42.678;26.324;2024-02-23T04:33:35;14.15;;;7.78;;
21235;SDS011;10775;42.678;26.324;2024-02-23T04:36:02;13.00;;;7.80;;
21235;SDS011;10775;42.678;26.324;2024-02-23T04:38:32;13.52;;;7.60;;
21235;SDS011;10775;42.678;26.324;2024-02-23T04:40:57;12.70;;;8.13;;
21235;SDS011;10775;42.678;26.324;2024-02-23T04:43:23;13.52;;;8.63;;
21235;SDS011;10775;42.678;26.324;2024-02-23T04:45:50;12.02;;;7.65;;
21235;SDS011;10775;42.678;26.324;2024-02-23T04:48:16;15.93;;;9.05;;
21235;SDS011;10775;42.678;26.324;2024-02-23T04:50:41;19.27;;;9.52;;
21235;SDS011;10775;42.678;26.324;2024-02-23T04:53:07;18.15;;;10.18;;
21235;SDS011;10775;42.678;26.324;2024-02-23T04:55:33;21.65;;;10.50;;
21235;SDS011;10775;42.678;26.324;2024-02-23T04:57:58;29.15;;;12.88;;
21235;SDS011;10775;42.678;26.324;2024-02-23T05:00:23;28.63;;;13.63;;
21235;SDS011;10775;42.678;26.324;2024-02-23T05:02:53;23.42;;;11.85;;
21235;SDS011;10775;42.678;26.324;2024-02-23T05:05:19;19.30;;;10.80;;
21235;SDS011;10775;42.678;26.324;2024-02-23T05:07:46;22.75;;;10.63;;
21235;SDS011;10775;42.678;26.324;2024-02-23T05:10:12;22.15;;;11.50;;
21235;SDS011;10775;42.678;26.324;2024-02-23T05:12:37;20.52;;;11.25;;
21235;SDS011;10775;42.678;26.324;2024-02-23T05:15:03;23.30;;;11.75;;
21235;SDS011;10775;42.678;26.324;2024-02-23T05:17:28;18.02;;;10.18;;
21235;SDS011;10775;42.678;26.324;2024-02-23T05:19:54;19.15;;;10.02;;
21235;SDS011;10775;42.678;26.324;2024-02-23T05:22:19;18.55;;;9.82;;
21235;SDS011;10775;42.678;26.324;2024-02-23T05:24:45;18.90;;;10.00;;
21235;SDS011;10775;42.678;26.324;2024-02-23T05:27:10;22.10;;;11.15;;
21235;SDS011;10775;42.678;26.324;2024-02-23T05:29:36;18.45;;;9.90;;
21235;SDS011;10775;42.678;26.324;2024-02-23T05:32:01;20.20;;;9.77;;
21235;SDS011;10775;42.678;26.324;2024-02-23T05:34:27;18.02;;;9.80;;
21235;SDS011;10775;42.678;26.324;2024-02-23T05:36:52;15.88;;;9.10;;
21235;SDS011;10775;42.678;26.324;2024-02-23T05:39:18;14.20;;;8.82;;
21235;SDS011;10775;42.678;26.324;2024-02-23T05:41:43;17.58;;;9.32;;
21235;SDS011;10775;42.678;26.324;2024-02-23T05:44:09;19.45;;;9.77;;
21235;SDS011;10775;42.678;26.324;2024-02-23T05:46:35;19.50;;;9.88;;
21235;SDS011;10775;42.678;26.324;2024-02-23T05:49:04;18.48;;;9.65;;
21235;SDS011;10775;42.678;26.324;2024-02-23T05:51:30;16.42;;;9.50;;
21235;SDS011;10775;42.678;26.324;2024-02-23T05:53:56;19.08;;;9.88;;
21235;SDS011;10775;42.678;26.324;2024-02-23T05:56:22;19.50;;;10.02;;
21235;SDS011;10775;42.678;26.324;2024-02-23T05:58:51;16.27;;;10.02;;
21235;SDS011;10775;42.678;26.324;2024-02-23T06:01:17;18.60;;;10.13;;
21235;SDS011;10775;42.678;26.324;2024-02-23T06:03:43;15.05;;;8.60;;
21235;SDS011;10775;42.678;26.324;2024-02-23T06:06:09;20.50;;;9.57;;
21235;SDS011;10775;42.678;26.324;2024-02-23T06:08:35;17.08;;;9.50;;
21235;SDS011;10775;42.678;26.324;2024-02-23T06:11:01;16.50;;;9.60;;
21235;SDS011;10775;42.678;26.324;2024-02-23T06:13:28;16.38;;;8.77;;
21235;SDS011;10775;42.678;26.324;2024-02-23T06:15:54;18.17;;;10.40;;
21235;SDS011;10775;42.678;26.324;2024-02-23T06:18:19;16.65;;;9.00;;
21235;SDS011;10775;42.678;26.324;2024-02-23T06:20:45;17.80;;;10.40;;
21235;SDS011;10775;42.678;26.324;2024-02-23T06:23:10;20.55;;;10.15;;
21235;SDS011;10775;42.678;26.324;2024-02-23T06:25:36;17.45;;;10.85;;
21235;SDS011;10775;42.678;26.324;2024-02-23T06:28:01;23.45;;;12.63;;
21235;SDS011;10775;42.678;26.324;2024-02-23T06:32:26;26.15;;;13.35;;
21235;SDS011;10775;42.678;26.324;2024-02-23T06:34:51;20.50;;;12.32;;
21235;SDS011;10775;42.678;26.324;2024-02-23T06:37:17;22.05;;;11.05;;
21235;SDS011;10775;42.678;26.324;2024-02-23T06:39:42;19.23;;;11.27;;
21235;SDS011;10775;42.678;26.324;2024-02-23T06:42:09;34.88;;;18.17;;
21235;SDS011;10775;42.678;26.324;2024-02-23T06:44:34;22.08;;;12.15;;
21235;SDS011;10775;42.678;26.324;2024-02-23T06:47:00;20.45;;;12.65;;
21235;SDS011;10775;42.678;26.324;2024-02-23T06:49:25;24.02;;;14.00;;
21235;SDS011;10775;42.678;26.324;2024-02-23T06:51:51;22.25;;;14.00;;
21235;SDS011;10775;42.678;26.324;2024-02-23T06:54:16;24.80;;;14.57;;
21235;SDS011;10775;42.678;26.324;2024-02-23T06:56:43;26.20;;;14.90;;
21235;SDS011;10775;42.678;26.324;2024-02-23T06:59:08;55.67;;;33.08;;
21235;SDS011;10775;42.678;26.324;2024-02-23T07:01:33;24.85;;;14.73;;
21235;SDS011;10775;42.678;26.324;2024-02-23T07:04:00;23.25;;;14.50;;
21235;SDS011;10775;42.678;26.324;2024-02-23T07:06:26;24.92;;;15.02;;
21235;SDS011;10775;42.678;26.324;2024-02-23T07:08:53;23.42;;;14.35;;
21235;SDS011;10775;42.678;26.324;2024-02-23T07:11:19;29.17;;;15.48;;
21235;SDS011;10775;42.678;26.324;2024-02-23T07:13:45;25.95;;;15.10;;
21235;SDS011;10775;42.678;26.324;2024-02-23T07:16:11;25.58;;;15.48;;
21235;SDS011;10775;42.678;26.324;2024-02-23T07:18:36;26.65;;;15.38;;
21235;SDS011;10775;42.678;26.324;2024-02-23T07:21:02;24.73;;;15.32;;
21235;SDS011;10775;42.678;26.324;2024-02-23T07:23:27;23.25;;;15.45;;
21235;SDS011;10775;42.678;26.324;2024-02-23T07:25:53;23.25;;;15.63;;
21235;SDS011;10775;42.678;26.324;2024-02-23T07:28:19;26.90;;;16.02;;
21235;SDS011;10775;42.678;26.324;2024-02-23T07:30:47;27.60;;;16.77;;
21235;SDS011;10775;42.678;26.324;2024-02-23T07:33:12;27.50;;;16.48;;
21235;SDS011;10775;42.678;26.324;2024-02-23T07:35:38;29.05;;;15.63;;
21235;SDS011;10775;42.678;26.324;2024-02-23T07:38:03;25.88;;;15.93;;
21235;SDS011;10775;42.678;26.324;2024-02-23T07:40:29;29.65;;;17.02;;
21235;SDS011;10775;42.678;26.324;2024-02-23T07:42:56;25.33;;;15.80;;
21235;SDS011;10775;42.678;26.324;2024-02-23T07:45:22;33.45;;;18.30;;
21235;SDS011;10775;42.678;26.324;2024-02-23T07:47:47;37.50;;;20.33;;
21235;SDS011;10775;42.678;26.324;2024-02-23T07:50:13;38.03;;;20.95;;
21235;SDS011;10775;42.678;26.324;2024-02-23T07:52:38;39.83;;;21.75;;
21235;SDS011;10775;42.678;26.324;2024-02-23T07:55:04;36.88;;;21.38;;
21235;SDS011;10775;42.678;26.324;2024-02-23T07:57:30;33.50;;;19.85;;
21235;SDS011;10775;42.678;26.324;2024-02-23T07:59:56;34.83;;;19.90;;
21235;SDS011;10775;42.678;26.324;2024-02-23T08:02:21;41.38;;;23.83;;
21235;SDS011;10775;42.678;26.324;2024-02-23T08:04:47;28.80;;;18.08;;
21235;SDS011;10775;42.678;26.324;2024-02-23T08:07:13;38.13;;;19.75;;
21235;SDS011;10775;42.678;26.324;2024-02-23T08:09:39;35.53;;;18.40;;
21235;SDS011;10775;42.678;26.324;2024-02-23T08:12:05;31.17;;;17.92;;
21235;SDS011;10775;42.678;26.324;2024-02-23T08:14:31;37.33;;;17.95;;
21235;SDS011;10775;42.678;26.324;2024-02-23T08:16:57;39.17;;;18.15;;
21235;SDS011;10775;42.678;26.324;2024-02-23T08:19:23;38.50;;;20.92;;
21235;SDS011;10775;42.678;26.324;2024-02-23T08:21:48;35.53;;;19.05;;
21235;SDS011;10775;42.678;26.324;2024-02-23T08:24:14;38.00;;;16.30;;
21235;SDS011;10775;42.678;26.324;2024-02-23T08:26:39;33.83;;;18.85;;
21235;SDS011;10775;42.678;26.324;2024-02-23T08:29:06;35.85;;;20.08;;
21235;SDS011;10775;42.678;26.324;2024-02-23T08:31:33;36.20;;;18.83;;
21235;SDS011;10775;42.678;26.324;2024-02-23T08:33:59;32.00;;;17.98;;
21235;SDS011;10775;42.678;26.324;2024-02-23T08:36:24;41.90;;;21.20;;
21235;SDS011;10775;42.678;26.324;2024-02-23T08:38:50;35.05;;;16.90;;
21235;SDS011;10775;42.678;26.324;2024-02-23T08:41:15;33.92;;;18.90;;
21235;SDS011;10775;42.678;26.324;2024-02-23T08:43:41;32.42;;;16.65;;
21235;SDS011;10775;42.678;26.324;2024-02-23T08:46:06;32.22;;;16.92;;
21235;SDS011;10775;42.678;26.324;2024-02-23T08:48:32;44.92;;;18.83;;
21235;SDS011;10775;42.678;26.324;2024-02-23T08:50:58;27.25;;;14.95;;
21235;SDS011;10775;42.678;26.324;2024-02-23T08:53:23;24.05;;;14.38;;
21235;SDS011;10775;42.678;26.324;2024-02-23T08:55:49;24.13;;;12.77;;
21235;SDS011;10775;42.678;26.324;2024-02-23T08:58:14;23.92;;;13.82;;
21235;SDS011;10775;42.678;26.324;2024-02-23T09:00:39;22.40;;;13.07;;
21235;SDS011;10775;42.678;26.324;2024-02-23T09:03:05;21.30;;;12.73;;
21235;SDS011;10775;42.678;26.324;2024-02-23T09:05:30;28.33;;;15.32;;
21235;SDS011;10775;42.678;26.324;2024-02-23T09:07:56;25.23;;;14.25;;
21235;SDS011;10775;42.678;26.324;2024-02-23T09:10:22;70.68;;;27.85;;
21235;SDS011;10775;42.678;26.324;2024-02-23T09:12:48;40.05;;;15.82;;
21235;SDS011;10775;42.678;26.324;2024-02-23T09:15:13;22.40;;;11.57;;
21235;SDS011;10775;42.678;26.324;2024-02-23T09:17:41;18.92;;;10.85;;
21235;SDS011;10775;42.678;26.324;2024-02-23T09:20:07;22.52;;;12.27;;
21235;SDS011;10775;42.678;26.324;2024-02-23T09:22:33;43.22;;;17.27;;
21235;SDS011;10775;42.678;26.324;2024-02-23T09:24:58;31.02;;;15.90;;
21235;SDS011;10775;42.678;26.324;2024-02-23T09:27:24;20.27;;;11.80;;
21235;SDS011;10775;42.678;26.324;2024-02-23T09:29:49;14.48;;;10.10;;
21235;SDS011;10775;42.678;26.324;2024-02-23T09:32:15;23.85;;;13.40;;
21235;SDS011;10775;42.678;26.324;2024-02-23T09:34:40;34.95;;;15.57;;
21235;SDS011;10775;42.678;26.324;2024-02-23T09:37:06;19.60;;;10.95;;
21235;SDS011;10775;42.678;26.324;2024-02-23T09:39:31;43.22;;;18.95;;
21235;SDS011;10775;42.678;26.324;2024-02-23T09:41:57;16.42;;;10.40;;
21235;SDS011;10775;42.678;26.324;2024-02-23T09:44:22;18.52;;;11.07;;
21235;SDS011;10775;42.678;26.324;2024-02-23T09:46:48;15.95;;;10.23;;
21235;SDS011;10775;42.678;26.324;2024-02-23T09:49:14;15.70;;;9.85;;
21235;SDS011;10775;42.678;26.324;2024-02-23T09:51:41;16.85;;;9.70;;
21235;SDS011;10775;42.678;26.324;2024-02-23T09:54:08;20.60;;;10.45;;
21235;SDS011;10775;42.678;26.324;2024-02-23T09:56:34;16.80;;;9.70;;
21235;SDS011;10775;42.678;26.324;2024-02-23T09:59:02;18.25;;;9.98;;
21235;SDS011;10775;42.678;26.324;2024-02-23T10:01:29;16.95;;;9.43;;
21235;SDS011;10775;42.678;26.324;2024-02-23T10:04:00;19.60;;;11.07;;
21235;SDS011;10775;42.678;26.324;2024-02-23T10:06:29;18.55;;;10.85;;
21235;SDS011;10775;42.678;26.324;2024-02-23T10:08:55;16.48;;;10.57;;
21235;SDS011;10775;42.678;26.324;2024-02-23T10:11:20;17.42;;;10.20;;
21235;SDS011;10775;42.678;26.324;2024-02-23T10:13:49;20.75;;;11.07;;
21235;SDS011;10775;42.678;26.324;2024-02-23T10:16:16;18.50;;;10.57;;
21235;SDS011;10775;42.678;26.324;2024-02-23T10:18:43;33.83;;;17.25;;
21235;SDS011;10775;42.678;26.324;2024-02-23T10:21:08;17.67;;;10.88;;
21235;SDS011;10775;42.678;26.324;2024-02-23T10:23:34;22.33;;;12.20;;
21235;SDS011;10775;42.678;26.324;2024-02-23T10:25:59;22.85;;;11.82;;
21235;SDS011;10775;42.678;26.324;2024-02-23T10:28:25;22.35;;;12.05;;
21235;SDS011;10775;42.678;26.324;2024-02-23T10:30:50;21.13;;;11.30;;
21235;SDS011;10775;42.678;26.324;2024-02-23T10:33:16;19.33;;;11.30;;
21235;SDS011;10775;42.678;26.324;2024-02-23T10:35:47;19.75;;;10.02;;
21235;SDS011;10775;42.678;26.324;2024-02-23T10:38:18;15.20;;;9.80;;
21235;SDS011;10775;42.678;26.324;2024-02-23T10:40:45;15.50;;;9.38;;
21235;SDS011;10775;42.678;26.324;2024-02-23T10:43:12;19.35;;;10.48;;
21235;SDS011;10775;42.678;26.324;2024-02-23T10:45:44;20.42;;;10.65;;
21235;SDS011;10775;42.678;26.324;2024-02-23T10:48:11;20.88;;;11.80;;
21235;SDS011;10775;42.678;26.324;2024-02-23T10:50:39;18.58;;;10.65;;
21235;SDS011;10775;42.678;26.324;2024-02-23T10:53:07;19.02;;;11.30;;
21235;SDS011;10775;42.678;26.324;2024-02-23T10:55:36;20.80;;;10.50;;
21235;SDS011;10775;42.678;26.324;2024-02-23T10:58:03;19.70;;;10.73;;
21235;SDS011;10775;42.678;26.324;2024-02-23T11:00:32;20.02;;;10.02;;
21235;SDS011;10775;42.678;26.324;2024-02-23T11:02:58;38.53;;;23.55;;
21235;SDS011;10775;42.678;26.324;2024-02-23T11:05:25;21.83;;;13.15;;
21235;SDS011;10775;42.678;26.324;2024-02-23T11:07:51;16.67;;;10.05;;
21235;SDS011;10775;42.678;26.324;2024-02-23T11:10:22;21.00;;;13.60;;
21235;SDS011;10775;42.678;26.324;2024-02-23T11:12:58;19.13;;;10.35;;
21235;SDS011;10775;42.678;26.324;2024-02-23T11:15:27;17.73;;;11.68;;
21235;SDS011;10775;42.678;26.324;2024-02-23T11:17:54;19.33;;;11.15;;
21235;SDS011;10775;42.678;26.324;2024-02-23T11:20:20;14.63;;;9.45;;
21235;SDS011;10775;42.678;26.324;2024-02-23T11:22:53;14.02;;;8.65;;
21235;SDS011;10775;42.678;26.324;2024-02-23T11:25:19;15.93;;;9.18;;
21235;SDS011;10775;42.678;26.324;2024-02-23T11:27:48;16.48;;;10.50;;
21235;SDS011;10775;42.678;26.324;2024-02-23T11:30:16;15.38;;;9.82;;
21235;SDS011;10775;42.678;26.324;2024-02-23T11:32:46;14.93;;;9.02;;
21235;SDS011;10775;42.678;26.324;2024-02-23T11:35:13;14.68;;;7.85;;
21235;SDS011;10775;42.678;26.324;2024-02-23T11:37:44;13.82;;;8.15;;
21235;SDS011;10775;42.678;26.324;2024-02-23T11:40:13;14.43;;;7.78;;
21235;SDS011;10775;42.678;26.324;2024-02-23T11:42:40;9.13;;;6.47;;
21235;SDS011;10775;42.678;26.324;2024-02-23T11:45:07;10.48;;;6.93;;
21235;SDS011;10775;42.678;26.324;2024-02-23T11:47:33;10.70;;;7.18;;
21235;SDS011;10775;42.678;26.324;2024-02-23T11:49:59;13.27;;;7.10;;
21235;SDS011;10775;42.678;26.324;2024-02-23T11:52:24;12.30;;;8.00;;
21235;SDS011;10775;42.678;26.324;2024-02-23T11:54:50;10.52;;;7.25;;
21235;SDS011;10775;42.678;26.324;2024-02-23T11:57:16;11.63;;;7.20;;
21235;SDS011;10775;42.678;26.324;2024-02-23T11:59:41;11.48;;;7.30;;
21235;SDS011;10775;42.678;26.324;2024-02-23T12:02:07;11.32;;;7.25;;
21235;SDS011;10775;42.678;26.324;2024-02-23T12:04:32;10.43;;;7.50;;
21235;SDS011;10775;42.678;26.324;2024-02-23T12:06:58;10.00;;;6.40;;
21235;SDS011;10775;42.678;26.324;2024-02-23T12:09:24;11.35;;;6.35;;
21235;SDS011;10775;42.678;26.324;2024-02-23T12:11:50;12.10;;;7.25;;
21235;SDS011;10775;42.678;26.324;2024-02-23T12:14:16;11.88;;;7.75;;
21235;SDS011;10775;42.678;26.324;2024-02-23T12:16:42;11.65;;;6.43;;
21235;SDS011;10775;42.678;26.324;2024-02-23T12:19:08;8.75;;;5.82;;
21235;SDS011;10775;42.678;26.324;2024-02-23T12:21:34;9.82;;;5.55;;
21235;SDS011;10775;42.678;26.324;2024-02-23T12:24:03;7.82;;;5.35;;
21235;SDS011;10775;42.678;26.324;2024-02-23T12:29:00;9.45;;;5.53;;
21235;SDS011;10775;42.678;26.324;2024-02-23T12:31:27;7.80;;;4.88;;
21235;SDS011;10775;42.678;26.324;2024-02-23T12:33:54;9.10;;;5.68;;
21235;SDS011;10775;42.678;26.324;2024-02-23T12:36:22;7.38;;;4.20;;
21235;SDS011;10775;42.678;26.324;2024-02-23T12:38:48;8.38;;;4.88;;
21235;SDS011;10775;42.678;26.324;2024-02-23T12:41:13;7.05;;;4.47;;
21235;SDS011;10775;42.678;26.324;2024-02-23T12:43:39;5.65;;;3.85;;
21235;SDS011;10775;42.678;26.324;2024-02-23T12:46:04;6.88;;;4.28;;
21235;SDS011;10775;42.678;26.324;2024-02-23T12:48:31;8.20;;;4.10;;
21235;SDS011;10775;42.678;26.324;2024-02-23T12:50:57;8.65;;;4.35;;
21235;SDS011;10775;42.678;26.324;2024-02-23T12:53:35;5.72;;;3.70;;
21235;SDS011;10775;42.678;26.324;2024-02-23T12:56:06;7.15;;;4.57;;
21235;SDS011;10775;42.678;26.324;2024-02-23T12:58:36;7.18;;;4.03;;
21235;SDS011;10775;42.678;26.324;2024-02-23T13:01:03;7.63;;;4.15;;
21235;SDS011;10775;42.678;26.324;2024-02-23T13:03:29;6.32;;;3.80;;
21235;SDS011;10775;42.678;26.324;2024-02-23T13:05:55;8.65;;;5.07;;
21235;SDS011;10775;42.678;26.324;2024-02-23T13:08:21;7.82;;;5.07;;
21235;SDS011;10775;42.678;26.324;2024-02-23T13:10:48;5.10;;;4.10;;
21235;SDS011;10775;42.678;26.324;2024-02-23T13:13:14;8.52;;;4.28;;
21235;SDS011;10775;42.678;26.324;2024-02-23T13:15:41;7.32;;;4.57;;
21235;SDS011;10775;42.678;26.324;2024-02-23T13:18:07;7.30;;;4.90;;
21235;SDS011;10775;42.678;26.324;2024-02-23T13:20:32;8.50;;;5.68;;
21235;SDS011;10775;42.678;26.324;2024-02-23T13:22:58;7.50;;;5.00;;
21235;SDS011;10775;42.678;26.324;2024-02-23T13:25:23;4.90;;;3.47;;
21235;SDS011;10775;42.678;26.324;2024-02-23T13:27:49;5.95;;;4.15;;
21235;SDS011;10775;42.678;26.324;2024-02-23T13:30:15;6.22;;;3.70;;
21235;SDS011;10775;42.678;26.324;2024-02-23T13:32:40;7.30;;;4.70;;
21235;SDS011;10775;42.678;26.324;2024-02-23T13:35:06;4.80;;;3.92;;
21235;SDS011;10775;42.678;26.324;2024-02-23T13:37:33;6.90;;;4.80;;
21235;SDS011;10775;42.678;26.324;2024-02-23T13:39:59;6.63;;;4.43;;
21235;SDS011;10775;42.678;26.324;2024-02-23T13:42:25;8.07;;;4.72;;
21235;SDS011;10775;42.678;26.324;2024-02-23T13:44:50;4.95;;;3.33;;
21235;SDS011;10775;42.678;26.324;2024-02-23T13:47:16;5.28;;;3.92;;
21235;SDS011;10775;42.678;26.324;2024-02-23T13:49:42;5.03;;;3.78;;
21235;SDS011;10775;42.678;26.324;2024-02-23T13:52:07;5.25;;;4.00;;
21235;SDS011;10775;42.678;26.324;2024-02-23T13:54:33;5.30;;;4.00;;
21235;SDS011;10775;42.678;26.324;2024-02-23T13:56:58;10.80;;;4.45;;
21235;SDS011;10775;42.678;26.324;2024-02-23T13:59:24;5.18;;;3.22;;
21235;SDS011;10775;42.678;26.324;2024-02-23T14:01:49;6.07;;;3.75;;
21235;SDS011;10775;42.678;26.324;2024-02-23T14:04:15;6.40;;;4.15;;
21235;SDS011;10775;42.678;26.324;2024-02-23T14:06:42;4.47;;;3.47;;
21235;SDS011;10775;42.678;26.324;2024-02-23T14:09:07;7.53;;;3.67;;
21235;SDS011;10775;42.678;26.324;2024-02-23T14:11:35;8.30;;;3.85;;
21235;SDS011;10775;42.678;26.324;2024-02-23T14:14:01;4.57;;;3.38;;
21235;SDS011;10775;42.678;26.324;2024-02-23T14:16:27;5.50;;;3.30;;